Skandia, Michigan
Current Conditions -  °F | °C
As of 2:45 PM on Thursday 29 Jan 2015 (Local Time) from KSAW Reporting Station
Light Snow Light Snow  
Wind Chill:   Ceiling: 1300
Heat Index: 23°   Visibility: 1mi
Dew Point: 19°   Wind: 21mph
Humidity: 86%   Direction: 350°N
Pressure: 29.91"   Gusts: 29mph
Location:  46.38°N, 87.24°W
Report Text: KSAW 291945Z 35018G25KT 1SM -SN OVC013 M05/M07 A2991
Loading
Personal Weather Stations






























Interactive Weather Map New forecast layout! Learn more

10-Day Weather Forecast

Advertisements
Track Severe Weather on mobile